This is the latest recevied weather packets stored in our database for station/object 4S6DRJ-13. If no packets are shown the sender has not sent any weather packets the latest 10 day(s).
| Time | Temp. | Humidity | Pressure | Rain* | Wind** | Luminosity | Snow |
|---|---|---|---|---|---|---|---|
| 1787800156 | 28.89° C | 79% | 1011.1 hPa | 0 mm | 1.34 m/s, 312° | 702 W/m² | - |
| 1787800095 | 29.44° C | 79% | 1011.2 hPa | 0 mm | 2.24 m/s, 160° | 184 W/m² | - |
| 1787800034 | 29.44° C | 79% | 1011.3 hPa | 0 mm | 1.79 m/s, 203° | 444 W/m² | - |
| 1787799973 | 29.44° C | 79% | 1011.1 hPa | 0 mm | 2.24 m/s, 217° | 753 W/m² | - |
| 1787799912 | 28.89° C | 79% | 1011.2 hPa | 0 mm | 1.79 m/s, 133° | 191 W/m² | - |
| 1787799851 | 28.89° C | 79% | 1011 hPa | 0 mm | 1.79 m/s, 211° | 672 W/m² | - |
| 1787799791 | 28.89° C | 79% | 1011.2 hPa | 0 mm | 2.24 m/s, 285° | 636 W/m² | - |
| 1787799729 | 28.89° C | 79% | 1011.3 hPa | 0 mm | 1.34 m/s, 78° | 276 W/m² | - |
| 1787799669 | 29.44° C | 79% | 1011 hPa | 0 mm | 1.34 m/s, 237° | 677 W/m² | - |
| 1787799608 | 29.44° C | 79% | 1011.2 hPa | 0 mm | 1.79 m/s, 180° | 245 W/m² | - |
| 1787799546 | 29.44° C | 80% | 1011.1 hPa | 0 mm | 1.34 m/s, 221° | 242 W/m² | - |
| 1787799486 | 29.44° C | 80% | 1011.1 hPa | 0 mm | 1.79 m/s, 312° | 413 W/m² | - |
| 1787799424 | 28.89° C | 80% | 1011.2 hPa | 0 mm | 0.89 m/s, 230° | 351 W/m² | - |
| 1787799364 | 28.89° C | 80% | 1011 hPa | 0 mm | 0.89 m/s, 237° | 711 W/m² | - |
| 1787799302 | 28.89° C | 81% | 1011 hPa | 0 mm | 1.79 m/s, 297° | 270 W/m² | - |
| 1787799242 | 28.89° C | 81% | 1011.1 hPa | 0 mm | 0.89 m/s, 257° | 252 W/m² | - |
| 1787799180 | 28.89° C | 81% | 1010.9 hPa | 0 mm | 0.89 m/s, 319° | 216 W/m² | - |
| 1787799119 | 28.89° C | 81% | 1011.1 hPa | 0 mm | 1.34 m/s, 235° | 677 W/m² | - |
| 1787799058 | 28.89° C | 82% | 1010.9 hPa | 0 mm | 0.45 m/s, 273° | 666 W/m² | - |
| 1787798997 | 28.89° C | 82% | 1011.2 hPa | 0 mm | 0.45 m/s, 263° | 672 W/m² | - |
| 1787798937 | 28.33° C | 82% | 1011 hPa | 0 mm | 1.79 m/s, 226° | 256 W/m² | - |
| 1787798875 | 28.33° C | 82% | 1011.1 hPa | 0 mm | 2.68 m/s, 262° | 567 W/m² | - |
| 1787798815 | 28.33° C | 82% | 1011.2 hPa | 0 mm | 0.89 m/s, 245° | 290 W/m² | - |
| 1787798753 | 28.89° C | 82% | 1011 hPa | 0 mm | 0.89 m/s, 234° | 620 W/m² | - |
| 1787798692 | 28.89° C | 81% | 1011.1 hPa | 0 mm | 0.89 m/s, 156° | 232 W/m² | - |
* Rain latest hour (hover to see other rain measurements)
** Current wind speed in m/s (hover to see current wind gust speed)